Atlantic, Maine
Current Conditions -  °F | °C
As of 8:55 PM on Monday 24 Nov 2014 (Local Time) from KBHB Reporting Station
Overcast Overcast  
Wind Chill: 55°   Ceiling: 200
Heat Index: 55°   Visibility: 2.5mi
Dew Point: 55°   Wind: 21mph
Humidity: 100%   Direction: 200°SSW
Pressure: 29.57"   Gusts: 26mph
Location:  44.1716°N, 68.4245°W
Report Text: KBHB 250155Z AUTO 20018G23KT 2 1/2SM OVC002 13/13 A2957 RMK AO1
Loading
Personal Weather Stations






























Interactive Weather Map New forecast layout! Learn more

10-Day Weather Forecast

Advertisements
Track Severe Weather on mobile